sensor_id;sensor_type;location;lat;lon;timestamp;P1;durP1;ratioP1;P2;durP2;ratioP2
289;SDS011;13193;48.874;9.086;2022-08-19T00:01:36;33.73;;;15.57;;
289;SDS011;13193;48.874;9.086;2022-08-19T00:04:04;28.20;;;14.47;;
289;SDS011;13193;48.874;9.086;2022-08-19T00:06:32;29.60;;;15.30;;
289;SDS011;13193;48.874;9.086;2022-08-19T00:08:59;26.93;;;14.97;;
289;SDS011;13193;48.874;9.086;2022-08-19T00:11:25;31.90;;;16.77;;
289;SDS011;13193;48.874;9.086;2022-08-19T00:13:52;23.17;;;13.77;;
289;SDS011;13193;48.874;9.086;2022-08-19T00:16:19;25.90;;;14.90;;
289;SDS011;13193;48.874;9.086;2022-08-19T00:18:47;25.90;;;14.73;;
289;SDS011;13193;48.874;9.086;2022-08-19T00:21:13;23.97;;;14.27;;
289;SDS011;13193;48.874;9.086;2022-08-19T00:23:40;25.57;;;13.93;;
289;SDS011;13193;48.874;9.086;2022-08-19T00:26:08;25.00;;;14.50;;
289;SDS011;13193;48.874;9.086;2022-08-19T00:28:35;21.73;;;13.30;;
289;SDS011;13193;48.874;9.086;2022-08-19T00:31:02;34.47;;;14.70;;
289;SDS011;13193;48.874;9.086;2022-08-19T00:33:29;25.33;;;13.47;;
289;SDS011;13193;48.874;9.086;2022-08-19T00:35:59;24.57;;;13.40;;
289;SDS011;13193;48.874;9.086;2022-08-19T00:38:25;29.87;;;13.90;;
289;SDS011;13193;48.874;9.086;2022-08-19T00:40:51;31.70;;;15.30;;
289;SDS011;13193;48.874;9.086;2022-08-19T00:43:21;21.00;;;13.43;;
289;SDS011;13193;48.874;9.086;2022-08-19T00:45:49;24.23;;;14.50;;
289;SDS011;13193;48.874;9.086;2022-08-19T00:48:15;24.20;;;14.63;;
289;SDS011;13193;48.874;9.086;2022-08-19T00:50:42;24.47;;;15.10;;
289;SDS011;13193;48.874;9.086;2022-08-19T00:53:10;31.30;;;15.43;;
289;SDS011;13193;48.874;9.086;2022-08-19T00:55:37;23.73;;;14.70;;
289;SDS011;13193;48.874;9.086;2022-08-19T00:58:07;25.90;;;14.80;;
289;SDS011;13193;48.874;9.086;2022-08-19T01:00:36;25.80;;;15.80;;
289;SDS011;13193;48.874;9.086;2022-08-19T01:03:05;31.23;;;16.77;;
289;SDS011;13193;48.874;9.086;2022-08-19T01:05:32;32.17;;;16.43;;
289;SDS011;13193;48.874;9.086;2022-08-19T01:08:00;30.67;;;15.90;;
289;SDS011;13193;48.874;9.086;2022-08-19T01:10:30;28.83;;;15.60;;
289;SDS011;13193;48.874;9.086;2022-08-19T01:12:59;28.97;;;16.37;;
289;SDS011;13193;48.874;9.086;2022-08-19T01:15:31;29.90;;;16.37;;
289;SDS011;13193;48.874;9.086;2022-08-19T01:18:04;30.83;;;16.60;;
289;SDS011;13193;48.874;9.086;2022-08-19T01:20:31;28.70;;;16.50;;
289;SDS011;13193;48.874;9.086;2022-08-19T01:22:58;31.50;;;17.17;;
289;SDS011;13193;48.874;9.086;2022-08-19T01:25:30;30.10;;;16.23;;
289;SDS011;13193;48.874;9.086;2022-08-19T01:28:01;28.07;;;16.80;;
289;SDS011;13193;48.874;9.086;2022-08-19T01:30:29;30.53;;;16.53;;
289;SDS011;13193;48.874;9.086;2022-08-19T01:32:57;30.20;;;17.33;;
289;SDS011;13193;48.874;9.086;2022-08-19T01:35:25;31.83;;;16.30;;
289;SDS011;13193;48.874;9.086;2022-08-19T01:37:55;29.27;;;16.87;;
289;SDS011;13193;48.874;9.086;2022-08-19T01:40:28;29.97;;;17.33;;
289;SDS011;13193;48.874;9.086;2022-08-19T01:42:55;30.30;;;16.40;;
289;SDS011;13193;48.874;9.086;2022-08-19T01:45:23;33.97;;;16.70;;
289;SDS011;13193;48.874;9.086;2022-08-19T01:47:50;29.57;;;17.50;;
289;SDS011;13193;48.874;9.086;2022-08-19T01:50:17;30.57;;;18.10;;
289;SDS011;13193;48.874;9.086;2022-08-19T01:52:43;37.33;;;18.70;;
289;SDS011;13193;48.874;9.086;2022-08-19T01:55:10;38.50;;;18.23;;
289;SDS011;13193;48.874;9.086;2022-08-19T01:57:37;32.23;;;17.50;;
289;SDS011;13193;48.874;9.086;2022-08-19T02:00:07;35.33;;;19.10;;
289;SDS011;13193;48.874;9.086;2022-08-19T02:02:35;36.67;;;18.93;;
289;SDS011;13193;48.874;9.086;2022-08-19T02:05:01;33.70;;;18.20;;
289;SDS011;13193;48.874;9.086;2022-08-19T02:07:27;39.17;;;19.80;;
289;SDS011;13193;48.874;9.086;2022-08-19T02:09:54;34.70;;;19.37;;
289;SDS011;13193;48.874;9.086;2022-08-19T02:12:20;35.57;;;19.50;;
289;SDS011;13193;48.874;9.086;2022-08-19T02:14:46;36.07;;;18.87;;
289;SDS011;13193;48.874;9.086;2022-08-19T02:17:12;56.40;;;21.23;;
289;SDS011;13193;48.874;9.086;2022-08-19T02:19:37;34.50;;;20.87;;
289;SDS011;13193;48.874;9.086;2022-08-19T02:22:03;35.93;;;18.07;;
289;SDS011;13193;48.874;9.086;2022-08-19T02:24:29;36.40;;;19.63;;
289;SDS011;13193;48.874;9.086;2022-08-19T02:26:55;43.47;;;20.27;;
289;SDS011;13193;48.874;9.086;2022-08-19T02:29:20;37.30;;;19.50;;
289;SDS011;13193;48.874;9.086;2022-08-19T02:31:46;37.83;;;21.10;;
289;SDS011;13193;48.874;9.086;2022-08-19T02:34:12;40.67;;;19.83;;
289;SDS011;13193;48.874;9.086;2022-08-19T02:36:37;37.60;;;18.70;;
289;SDS011;13193;48.874;9.086;2022-08-19T02:39:03;39.87;;;21.20;;
289;SDS011;13193;48.874;9.086;2022-08-19T02:41:30;41.07;;;20.67;;
289;SDS011;13193;48.874;9.086;2022-08-19T02:43:59;40.50;;;20.63;;
289;SDS011;13193;48.874;9.086;2022-08-19T02:46:28;40.63;;;20.83;;
289;SDS011;13193;48.874;9.086;2022-08-19T02:48:56;37.77;;;21.07;;
289;SDS011;13193;48.874;9.086;2022-08-19T02:51:26;36.03;;;20.63;;
289;SDS011;13193;48.874;9.086;2022-08-19T02:53:53;45.00;;;20.43;;
289;SDS011;13193;48.874;9.086;2022-08-19T02:56:19;39.00;;;20.80;;
289;SDS011;13193;48.874;9.086;2022-08-19T02:58:45;37.93;;;21.10;;
289;SDS011;13193;48.874;9.086;2022-08-19T03:01:18;41.60;;;22.10;;
289;SDS011;13193;48.874;9.086;2022-08-19T03:03:48;35.73;;;20.10;;
289;SDS011;13193;48.874;9.086;2022-08-19T03:06:14;42.80;;;23.03;;
289;SDS011;13193;48.874;9.086;2022-08-19T03:08:41;39.43;;;21.23;;
289;SDS011;13193;48.874;9.086;2022-08-19T03:11:15;42.03;;;22.40;;
289;SDS011;13193;48.874;9.086;2022-08-19T03:13:46;40.30;;;22.63;;
289;SDS011;13193;48.874;9.086;2022-08-19T03:16:15;38.10;;;20.80;;
289;SDS011;13193;48.874;9.086;2022-08-19T03:18:42;39.73;;;21.80;;
289;SDS011;13193;48.874;9.086;2022-08-19T03:21:08;38.60;;;21.90;;
289;SDS011;13193;48.874;9.086;2022-08-19T03:23:34;42.63;;;21.80;;
289;SDS011;13193;48.874;9.086;2022-08-19T03:26:02;42.33;;;24.37;;
289;SDS011;13193;48.874;9.086;2022-08-19T03:28:29;45.00;;;22.20;;
289;SDS011;13193;48.874;9.086;2022-08-19T03:31:04;36.03;;;20.50;;
289;SDS011;13193;48.874;9.086;2022-08-19T03:33:32;44.40;;;21.07;;
289;SDS011;13193;48.874;9.086;2022-08-19T03:36:03;40.47;;;22.70;;
289;SDS011;13193;48.874;9.086;2022-08-19T03:38:32;47.70;;;24.53;;
289;SDS011;13193;48.874;9.086;2022-08-19T03:41:01;45.80;;;25.13;;
289;SDS011;13193;48.874;9.086;2022-08-19T03:43:28;41.23;;;21.90;;
289;SDS011;13193;48.874;9.086;2022-08-19T03:46:00;45.33;;;24.43;;
289;SDS011;13193;48.874;9.086;2022-08-19T03:48:29;42.97;;;25.10;;
289;SDS011;13193;48.874;9.086;2022-08-19T03:50:55;42.47;;;23.30;;
289;SDS011;13193;48.874;9.086;2022-08-19T03:53:22;40.87;;;21.80;;
289;SDS011;13193;48.874;9.086;2022-08-19T03:55:47;39.60;;;22.00;;
289;SDS011;13193;48.874;9.086;2022-08-19T03:58:13;41.33;;;22.83;;
289;SDS011;13193;48.874;9.086;2022-08-19T04:00:41;43.47;;;24.57;;
289;SDS011;13193;48.874;9.086;2022-08-19T04:03:08;44.77;;;23.47;;
289;SDS011;13193;48.874;9.086;2022-08-19T04:05:34;48.13;;;25.07;;
289;SDS011;13193;48.874;9.086;2022-08-19T04:07:59;47.07;;;23.73;;
289;SDS011;13193;48.874;9.086;2022-08-19T04:10:25;40.73;;;23.10;;
289;SDS011;13193;48.874;9.086;2022-08-19T04:12:53;36.90;;;22.37;;
289;SDS011;13193;48.874;9.086;2022-08-19T04:15:18;42.50;;;23.60;;
289;SDS011;13193;48.874;9.086;2022-08-19T04:17:45;49.47;;;25.53;;
289;SDS011;13193;48.874;9.086;2022-08-19T04:20:11;38.57;;;21.07;;
289;SDS011;13193;48.874;9.086;2022-08-19T04:22:36;43.70;;;24.30;;
289;SDS011;13193;48.874;9.086;2022-08-19T04:25:02;52.57;;;24.73;;
289;SDS011;13193;48.874;9.086;2022-08-19T04:27:28;42.70;;;23.70;;
289;SDS011;13193;48.874;9.086;2022-08-19T04:29:54;47.70;;;24.10;;
289;SDS011;13193;48.874;9.086;2022-08-19T04:32:20;44.83;;;25.93;;
289;SDS011;13193;48.874;9.086;2022-08-19T04:34:46;46.47;;;24.37;;
289;SDS011;13193;48.874;9.086;2022-08-19T04:37:11;44.13;;;23.43;;
289;SDS011;13193;48.874;9.086;2022-08-19T04:39:38;42.33;;;23.37;;
289;SDS011;13193;48.874;9.086;2022-08-19T04:42:23;46.03;;;23.17;;
289;SDS011;13193;48.874;9.086;2022-08-19T04:45:07;46.20;;;25.00;;
289;SDS011;13193;48.874;9.086;2022-08-19T04:47:36;43.23;;;22.20;;
289;SDS011;13193;48.874;9.086;2022-08-19T04:50:02;42.87;;;25.03;;
289;SDS011;13193;48.874;9.086;2022-08-19T04:52:29;47.40;;;24.03;;
289;SDS011;13193;48.874;9.086;2022-08-19T04:54:56;50.63;;;25.90;;
289;SDS011;13193;48.874;9.086;2022-08-19T04:57:23;48.90;;;23.53;;
289;SDS011;13193;48.874;9.086;2022-08-19T04:59:48;42.20;;;23.80;;
289;SDS011;13193;48.874;9.086;2022-08-19T05:02:18;45.53;;;24.30;;
289;SDS011;13193;48.874;9.086;2022-08-19T05:04:43;55.27;;;24.27;;
289;SDS011;13193;48.874;9.086;2022-08-19T05:07:09;53.87;;;25.70;;
289;SDS011;13193;48.874;9.086;2022-08-19T05:09:35;44.27;;;24.63;;
289;SDS011;13193;48.874;9.086;2022-08-19T05:12:01;42.50;;;23.47;;
289;SDS011;13193;48.874;9.086;2022-08-19T05:14:26;42.40;;;24.10;;
289;SDS011;13193;48.874;9.086;2022-08-19T05:16:54;41.33;;;24.10;;
289;SDS011;13193;48.874;9.086;2022-08-19T05:19:19;42.43;;;24.30;;
289;SDS011;13193;48.874;9.086;2022-08-19T05:22:03;43.43;;;21.73;;
289;SDS011;13193;48.874;9.086;2022-08-19T05:24:47;40.50;;;24.17;;
289;SDS011;13193;48.874;9.086;2022-08-19T05:27:13;49.03;;;24.67;;
289;SDS011;13193;48.874;9.086;2022-08-19T05:29:39;46.73;;;25.00;;
289;SDS011;13193;48.874;9.086;2022-08-19T05:32:05;44.13;;;24.70;;
289;SDS011;13193;48.874;9.086;2022-08-19T05:34:34;49.20;;;24.23;;
289;SDS011;13193;48.874;9.086;2022-08-19T05:37:01;44.80;;;25.37;;
289;SDS011;13193;48.874;9.086;2022-08-19T05:39:29;50.20;;;23.87;;
289;SDS011;13193;48.874;9.086;2022-08-19T05:41:58;45.53;;;24.40;;
289;SDS011;13193;48.874;9.086;2022-08-19T05:44:29;49.17;;;23.57;;
289;SDS011;13193;48.874;9.086;2022-08-19T05:46:57;42.37;;;24.20;;
289;SDS011;13193;48.874;9.086;2022-08-19T05:49:24;43.03;;;24.10;;
289;SDS011;13193;48.874;9.086;2022-08-19T05:51:52;45.93;;;25.43;;
289;SDS011;13193;48.874;9.086;2022-08-19T05:54:19;40.07;;;24.17;;
289;SDS011;13193;48.874;9.086;2022-08-19T05:56:46;48.90;;;26.20;;
289;SDS011;13193;48.874;9.086;2022-08-19T05:59:12;44.87;;;25.07;;
289;SDS011;13193;48.874;9.086;2022-08-19T06:01:40;43.37;;;23.23;;
289;SDS011;13193;48.874;9.086;2022-08-19T06:04:07;41.37;;;23.30;;
289;SDS011;13193;48.874;9.086;2022-08-19T06:06:33;48.60;;;25.67;;
289;SDS011;13193;48.874;9.086;2022-08-19T06:09:03;44.23;;;23.50;;
289;SDS011;13193;48.874;9.086;2022-08-19T06:14:00;50.73;;;24.43;;
289;SDS011;13193;48.874;9.086;2022-08-19T06:16:33;46.20;;;24.57;;
289;SDS011;13193;48.874;9.086;2022-08-19T06:19:01;42.87;;;22.90;;
289;SDS011;13193;48.874;9.086;2022-08-19T06:21:31;48.13;;;24.93;;
289;SDS011;13193;48.874;9.086;2022-08-19T06:23:58;42.13;;;24.47;;
289;SDS011;13193;48.874;9.086;2022-08-19T06:26:24;42.27;;;22.93;;
289;SDS011;13193;48.874;9.086;2022-08-19T06:28:51;45.60;;;23.73;;
289;SDS011;13193;48.874;9.086;2022-08-19T06:31:18;50.97;;;22.90;;
289;SDS011;13193;48.874;9.086;2022-08-19T06:33:47;42.43;;;23.10;;
289;SDS011;13193;48.874;9.086;2022-08-19T06:36:56;47.00;;;24.07;;
289;SDS011;13193;48.874;9.086;2022-08-19T06:39:08;49.27;;;23.57;;
289;SDS011;13193;48.874;9.086;2022-08-19T06:41:36;48.50;;;24.40;;
289;SDS011;13193;48.874;9.086;2022-08-19T06:44:04;42.03;;;24.40;;
289;SDS011;13193;48.874;9.086;2022-08-19T06:46:30;39.10;;;22.90;;
289;SDS011;13193;48.874;9.086;2022-08-19T06:48:56;43.73;;;22.13;;
289;SDS011;13193;48.874;9.086;2022-08-19T06:51:23;40.20;;;21.50;;
289;SDS011;13193;48.874;9.086;2022-08-19T06:53:50;57.33;;;23.80;;
289;SDS011;13193;48.874;9.086;2022-08-19T06:56:18;49.30;;;23.03;;
289;SDS011;13193;48.874;9.086;2022-08-19T06:58:46;48.40;;;23.10;;
289;SDS011;13193;48.874;9.086;2022-08-19T07:01:11;42.13;;;22.10;;
289;SDS011;13193;48.874;9.086;2022-08-19T07:03:38;42.13;;;21.50;;
289;SDS011;13193;48.874;9.086;2022-08-19T07:06:04;39.63;;;21.40;;
289;SDS011;13193;48.874;9.086;2022-08-19T07:08:32;46.20;;;23.50;;
289;SDS011;13193;48.874;9.086;2022-08-19T07:10:58;35.80;;;20.63;;
289;SDS011;13193;48.874;9.086;2022-08-19T07:13:23;45.07;;;21.20;;
289;SDS011;13193;48.874;9.086;2022-08-19T07:15:49;33.33;;;19.17;;
289;SDS011;13193;48.874;9.086;2022-08-19T07:18:17;36.30;;;20.77;;
289;SDS011;13193;48.874;9.086;2022-08-19T07:20:43;36.93;;;22.20;;
289;SDS011;13193;48.874;9.086;2022-08-19T07:23:09;34.33;;;18.77;;
289;SDS011;13193;48.874;9.086;2022-08-19T07:25:36;40.97;;;20.93;;
289;SDS011;13193;48.874;9.086;2022-08-19T07:28:02;40.07;;;20.33;;
289;SDS011;13193;48.874;9.086;2022-08-19T07:30:28;33.80;;;20.20;;
289;SDS011;13193;48.874;9.086;2022-08-19T07:32:54;42.97;;;19.37;;
289;SDS011;13193;48.874;9.086;2022-08-19T07:35:21;36.30;;;19.20;;
289;SDS011;13193;48.874;9.086;2022-08-19T07:37:48;34.30;;;18.87;;
289;SDS011;13193;48.874;9.086;2022-08-19T07:40:14;36.57;;;21.03;;
289;SDS011;13193;48.874;9.086;2022-08-19T07:42:40;32.10;;;18.50;;
289;SDS011;13193;48.874;9.086;2022-08-19T07:45:07;34.30;;;18.90;;
289;SDS011;13193;48.874;9.086;2022-08-19T07:47:34;34.93;;;19.43;;
289;SDS011;13193;48.874;9.086;2022-08-19T07:50:00;31.10;;;17.07;;
289;SDS011;13193;48.874;9.086;2022-08-19T07:52:29;39.50;;;21.20;;
289;SDS011;13193;48.874;9.086;2022-08-19T07:54:55;32.17;;;20.00;;
289;SDS011;13193;48.874;9.086;2022-08-19T07:57:20;32.20;;;19.80;;
289;SDS011;13193;48.874;9.086;2022-08-19T07:59:46;34.37;;;14.57;;
289;SDS011;13193;48.874;9.086;2022-08-19T08:02:12;38.70;;;20.50;;
289;SDS011;13193;48.874;9.086;2022-08-19T08:04:37;33.30;;;18.53;;
289;SDS011;13193;48.874;9.086;2022-08-19T08:07:21;33.43;;;18.27;;
289;SDS011;13193;48.874;9.086;2022-08-19T08:10:06;34.00;;;19.13;;
289;SDS011;13193;48.874;9.086;2022-08-19T08:12:34;37.90;;;20.70;;
289;SDS011;13193;48.874;9.086;2022-08-19T08:15:07;50.87;;;17.27;;
289;SDS011;13193;48.874;9.086;2022-08-19T08:17:36;43.07;;;19.43;;
289;SDS011;13193;48.874;9.086;2022-08-19T08:20:04;40.47;;;19.60;;
289;SDS011;13193;48.874;9.086;2022-08-19T08:22:33;30.00;;;16.53;;
289;SDS011;13193;48.874;9.086;2022-08-19T08:25:19;29.00;;;17.53;;
289;SDS011;13193;48.874;9.086;2022-08-19T08:27:47;36.33;;;19.93;;
289;SDS011;13193;48.874;9.086;2022-08-19T08:30:18;26.77;;;15.33;;
289;SDS011;13193;48.874;9.086;2022-08-19T08:32:46;29.63;;;17.90;;
289;SDS011;13193;48.874;9.086;2022-08-19T08:35:13;29.57;;;18.37;;
289;SDS011;13193;48.874;9.086;2022-08-19T08:37:41;31.70;;;17.17;;
289;SDS011;13193;48.874;9.086;2022-08-19T08:40:18;30.27;;;17.13;;
289;SDS011;13193;48.874;9.086;2022-08-19T08:45:52;27.60;;;16.63;;
289;SDS011;13193;48.874;9.086;2022-08-19T08:48:53;28.97;;;17.33;;
289;SDS011;13193;48.874;9.086;2022-08-19T08:51:26;33.10;;;18.40;;
289;SDS011;13193;48.874;9.086;2022-08-19T08:53:58;31.20;;;16.80;;
289;SDS011;13193;48.874;9.086;2022-08-19T08:56:24;29.07;;;14.13;;
289;SDS011;13193;48.874;9.086;2022-08-19T08:58:52;26.83;;;14.77;;
289;SDS011;13193;48.874;9.086;2022-08-19T09:01:22;28.50;;;16.33;;
289;SDS011;13193;48.874;9.086;2022-08-19T09:03:48;34.53;;;15.33;;
289;SDS011;13193;48.874;9.086;2022-08-19T09:11:38;24.70;;;13.40;;
289;SDS011;13193;48.874;9.086;2022-08-19T09:16:41;31.67;;;16.60;;
289;SDS011;13193;48.874;9.086;2022-08-19T09:19:07;20.80;;;14.93;;
289;SDS011;13193;48.874;9.086;2022-08-19T09:21:36;24.60;;;14.10;;
289;SDS011;13193;48.874;9.086;2022-08-19T09:24:03;30.00;;;15.57;;
289;SDS011;13193;48.874;9.086;2022-08-19T09:26:30;24.40;;;14.00;;
289;SDS011;13193;48.874;9.086;2022-08-19T09:28:57;20.37;;;13.00;;
289;SDS011;13193;48.874;9.086;2022-08-19T09:31:25;28.40;;;14.00;;
289;SDS011;13193;48.874;9.086;2022-08-19T09:33:53;32.33;;;14.60;;
289;SDS011;13193;48.874;9.086;2022-08-19T09:36:22;30.97;;;13.73;;
289;SDS011;13193;48.874;9.086;2022-08-19T09:38:50;29.27;;;14.40;;
289;SDS011;13193;48.874;9.086;2022-08-19T09:41:17;22.73;;;13.20;;
289;SDS011;13193;48.874;9.086;2022-08-19T09:43:45;21.63;;;14.07;;
289;SDS011;13193;48.874;9.086;2022-08-19T09:46:12;17.30;;;11.50;;
289;SDS011;13193;48.874;9.086;2022-08-19T09:48:41;25.70;;;15.20;;
289;SDS011;13193;48.874;9.086;2022-08-19T09:51:11;21.80;;;13.50;;
289;SDS011;13193;48.874;9.086;2022-08-19T09:53:40;20.33;;;12.43;;
289;SDS011;13193;48.874;9.086;2022-08-19T09:56:08;25.00;;;14.20;;
289;SDS011;13193;48.874;9.086;2022-08-19T09:58:36;28.43;;;14.53;;
289;SDS011;13193;48.874;9.086;2022-08-19T10:01:03;24.73;;;14.03;;
289;SDS011;13193;48.874;9.086;2022-08-19T10:03:30;22.50;;;12.00;;
289;SDS011;13193;48.874;9.086;2022-08-19T10:05:57;21.17;;;14.10;;
289;SDS011;13193;48.874;9.086;2022-08-19T10:08:27;22.23;;;13.93;;
289;SDS011;13193;48.874;9.086;2022-08-19T10:10:55;19.20;;;12.80;;
289;SDS011;13193;48.874;9.086;2022-08-19T10:13:22;21.30;;;12.43;;
289;SDS011;13193;48.874;9.086;2022-08-19T10:15:51;23.20;;;14.10;;
289;SDS011;13193;48.874;9.086;2022-08-19T10:18:19;20.13;;;12.23;;
289;SDS011;13193;48.874;9.086;2022-08-19T10:20:47;20.07;;;13.13;;
289;SDS011;13193;48.874;9.086;2022-08-19T10:23:14;23.90;;;12.37;;
289;SDS011;13193;48.874;9.086;2022-08-19T10:25:40;22.03;;;11.70;;
289;SDS011;13193;48.874;9.086;2022-08-19T10:28:07;31.30;;;11.30;;
289;SDS011;13193;48.874;9.086;2022-08-19T10:30:35;32.43;;;11.80;;
289;SDS011;13193;48.874;9.086;2022-08-19T10:33:01;15.13;;;10.70;;
289;SDS011;13193;48.874;9.086;2022-08-19T10:35:26;20.43;;;10.53;;
289;SDS011;13193;48.874;9.086;2022-08-19T10:37:54;23.30;;;11.63;;
289;SDS011;13193;48.874;9.086;2022-08-19T10:40:24;19.87;;;10.97;;
289;SDS011;13193;48.874;9.086;2022-08-19T10:42:50;20.20;;;10.10;;
289;SDS011;13193;48.874;9.086;2022-08-19T10:45:16;17.10;;;10.40;;
289;SDS011;13193;48.874;9.086;2022-08-19T10:47:42;16.60;;;9.50;;
289;SDS011;13193;48.874;9.086;2022-08-19T10:50:08;17.30;;;9.27;;
289;SDS011;13193;48.874;9.086;2022-08-19T10:52:52;17.93;;;9.70;;
289;SDS011;13193;48.874;9.086;2022-08-19T10:55:22;19.80;;;9.67;;
289;SDS011;13193;48.874;9.086;2022-08-19T10:58:11;19.23;;;10.23;;
289;SDS011;13193;48.874;9.086;2022-08-19T11:00:38;17.77;;;9.17;;
289;SDS011;13193;48.874;9.086;2022-08-19T11:03:05;12.77;;;8.50;;
289;SDS011;13193;48.874;9.086;2022-08-19T11:05:31;22.57;;;10.00;;
289;SDS011;13193;48.874;9.086;2022-08-19T11:07:59;14.37;;;9.10;;
289;SDS011;13193;48.874;9.086;2022-08-19T11:10:24;17.93;;;8.97;;
289;SDS011;13193;48.874;9.086;2022-08-19T11:12:50;16.50;;;9.73;;
289;SDS011;13193;48.874;9.086;2022-08-19T11:15:19;13.20;;;9.70;;
289;SDS011;13193;48.874;9.086;2022-08-19T11:17:45;14.93;;;9.77;;
289;SDS011;13193;48.874;9.086;2022-08-19T11:20:11;16.43;;;9.77;;
289;SDS011;13193;48.874;9.086;2022-08-19T11:22:38;15.87;;;9.40;;
289;SDS011;13193;48.874;9.086;2022-08-19T11:25:07;21.40;;;9.37;;
289;SDS011;13193;48.874;9.086;2022-08-19T11:27:37;14.63;;;9.73;;
289;SDS011;13193;48.874;9.086;2022-08-19T11:30:10;14.83;;;8.27;;
289;SDS011;13193;48.874;9.086;2022-08-19T11:32:37;17.37;;;10.00;;
289;SDS011;13193;48.874;9.086;2022-08-19T11:35:02;13.67;;;8.43;;
289;SDS011;13193;48.874;9.086;2022-08-19T11:37:28;18.03;;;9.77;;
289;SDS011;13193;48.874;9.086;2022-08-19T11:39:54;15.83;;;9.63;;
289;SDS011;13193;48.874;9.086;2022-08-19T11:42:20;16.20;;;8.70;;
289;SDS011;13193;48.874;9.086;2022-08-19T11:45:05;23.47;;;10.50;;
289;SDS011;13193;48.874;9.086;2022-08-19T11:47:32;13.33;;;10.20;;
289;SDS011;13193;48.874;9.086;2022-08-19T11:49:58;18.73;;;9.63;;
289;SDS011;13193;48.874;9.086;2022-08-19T11:52:24;21.23;;;9.73;;
289;SDS011;13193;48.874;9.086;2022-08-19T11:54:51;22.07;;;10.00;;
289;SDS011;13193;48.874;9.086;2022-08-19T11:57:16;15.30;;;8.80;;
289;SDS011;13193;48.874;9.086;2022-08-19T11:59:47;24.97;;;9.53;;
289;SDS011;13193;48.874;9.086;2022-08-19T12:02:17;18.73;;;9.80;;
289;SDS011;13193;48.874;9.086;2022-08-19T12:04:44;17.30;;;9.60;;
289;SDS011;13193;48.874;9.086;2022-08-19T12:07:09;17.93;;;8.87;;
289;SDS011;13193;48.874;9.086;2022-08-19T12:09:35;13.73;;;10.00;;
289;SDS011;13193;48.874;9.086;2022-08-19T12:12:01;15.23;;;8.30;;
289;SDS011;13193;48.874;9.086;2022-08-19T12:14:29;12.53;;;8.67;;
289;SDS011;13193;48.874;9.086;2022-08-19T12:16:56;16.40;;;7.53;;
289;SDS011;13193;48.874;9.086;2022-08-19T12:19:21;11.57;;;8.07;;
289;SDS011;13193;48.874;9.086;2022-08-19T12:21:47;18.93;;;8.67;;
289;SDS011;13193;48.874;9.086;2022-08-19T12:24:13;12.13;;;8.57;;
289;SDS011;13193;48.874;9.086;2022-08-19T12:26:39;13.87;;;8.50;;
289;SDS011;13193;48.874;9.086;2022-08-19T12:29:05;16.60;;;8.53;;
289;SDS011;13193;48.874;9.086;2022-08-19T12:31:30;10.40;;;7.90;;
289;SDS011;13193;48.874;9.086;2022-08-19T12:33:56;14.33;;;8.03;;
289;SDS011;13193;48.874;9.086;2022-08-19T12:36:22;13.20;;;6.80;;
289;SDS011;13193;48.874;9.086;2022-08-19T12:38:48;11.07;;;7.67;;
289;SDS011;13193;48.874;9.086;2022-08-19T12:41:15;15.60;;;7.60;;
289;SDS011;13193;48.874;9.086;2022-08-19T12:43:43;10.20;;;7.23;;
289;SDS011;13193;48.874;9.086;2022-08-19T12:46:09;17.33;;;7.40;;
289;SDS011;13193;48.874;9.086;2022-08-19T12:48:36;9.97;;;7.23;;
289;SDS011;13193;48.874;9.086;2022-08-19T12:51:07;11.10;;;7.07;;
289;SDS011;13193;48.874;9.086;2022-08-19T12:53:35;9.20;;;6.33;;
289;SDS011;13193;48.874;9.086;2022-08-19T12:56:02;10.17;;;6.47;;
289;SDS011;13193;48.874;9.086;2022-08-19T12:58:28;13.33;;;6.33;;
289;SDS011;13193;48.874;9.086;2022-08-19T13:00:54;11.57;;;6.33;;
289;SDS011;13193;48.874;9.086;2022-08-19T13:03:20;12.27;;;6.53;;
289;SDS011;13193;48.874;9.086;2022-08-19T13:05:50;12.37;;;7.90;;
289;SDS011;13193;48.874;9.086;2022-08-19T13:08:16;13.47;;;8.10;;
289;SDS011;13193;48.874;9.086;2022-08-19T13:10:42;10.07;;;6.70;;
289;SDS011;13193;48.874;9.086;2022-08-19T13:13:08;11.87;;;8.47;;
289;SDS011;13193;48.874;9.086;2022-08-19T13:15:35;14.47;;;8.10;;
289;SDS011;13193;48.874;9.086;2022-08-19T13:18:04;14.10;;;8.60;;
289;SDS011;13193;48.874;9.086;2022-08-19T13:20:30;13.07;;;7.43;;
289;SDS011;13193;48.874;9.086;2022-08-19T13:22:56;20.37;;;8.00;;
289;SDS011;13193;48.874;9.086;2022-08-19T13:25:22;10.00;;;6.50;;
289;SDS011;13193;48.874;9.086;2022-08-19T13:27:48;14.13;;;7.83;;
289;SDS011;13193;48.874;9.086;2022-08-19T13:30:15;15.13;;;6.87;;
289;SDS011;13193;48.874;9.086;2022-08-19T13:33:00;17.10;;;6.90;;
289;SDS011;13193;48.874;9.086;2022-08-19T13:35:43;13.63;;;6.93;;
289;SDS011;13193;48.874;9.086;2022-08-19T13:38:11;10.00;;;6.50;;
289;SDS011;13193;48.874;9.086;2022-08-19T13:40:38;11.90;;;7.73;;
289;SDS011;13193;48.874;9.086;2022-08-19T13:43:04;11.60;;;7.47;;
289;SDS011;13193;48.874;9.086;2022-08-19T13:45:30;8.63;;;6.97;;
289;SDS011;13193;48.874;9.086;2022-08-19T13:47:58;12.13;;;6.30;;
289;SDS011;13193;48.874;9.086;2022-08-19T13:50:27;22.07;;;8.17;;
289;SDS011;13193;48.874;9.086;2022-08-19T13:52:54;10.00;;;6.60;;
289;SDS011;13193;48.874;9.086;2022-08-19T13:55:21;16.27;;;5.80;;
289;SDS011;13193;48.874;9.086;2022-08-19T13:57:51;12.07;;;6.70;;
289;SDS011;13193;48.874;9.086;2022-08-19T14:00:21;10.00;;;6.40;;
289;SDS011;13193;48.874;9.086;2022-08-19T14:02:50;11.03;;;8.00;;
289;SDS011;13193;48.874;9.086;2022-08-19T14:05:17;12.40;;;8.20;;
289;SDS011;13193;48.874;9.086;2022-08-19T14:07:44;10.77;;;9.30;;
289;SDS011;13193;48.874;9.086;2022-08-19T14:10:10;13.43;;;8.90;;
289;SDS011;13193;48.874;9.086;2022-08-19T14:12:37;10.70;;;7.83;;
289;SDS011;13193;48.874;9.086;2022-08-19T14:15:04;20.23;;;8.60;;
289;SDS011;13193;48.874;9.086;2022-08-19T14:17:31;13.90;;;8.03;;
289;SDS011;13193;48.874;9.086;2022-08-19T14:19:59;11.90;;;8.30;;
289;SDS011;13193;48.874;9.086;2022-08-19T14:22:29;12.30;;;6.97;;
289;SDS011;13193;48.874;9.086;2022-08-19T14:24:56;7.13;;;5.10;;
289;SDS011;13193;48.874;9.086;2022-08-19T14:27:22;7.93;;;6.27;;
289;SDS011;13193;48.874;9.086;2022-08-19T14:29:50;10.40;;;6.40;;
289;SDS011;13193;48.874;9.086;2022-08-19T14:32:16;7.53;;;6.83;;
289;SDS011;13193;48.874;9.086;2022-08-19T14:34:42;7.80;;;5.00;;
289;SDS011;13193;48.874;9.086;2022-08-19T14:37:10;6.13;;;5.37;;
289;SDS011;13193;48.874;9.086;2022-08-19T14:39:42;10.70;;;6.60;;
289;SDS011;13193;48.874;9.086;2022-08-19T14:42:09;14.13;;;6.10;;
289;SDS011;13193;48.874;9.086;2022-08-19T14:44:35;9.40;;;7.23;;
289;SDS011;13193;48.874;9.086;2022-08-19T14:47:01;7.17;;;5.67;;
289;SDS011;13193;48.874;9.086;2022-08-19T14:49:28;9.50;;;6.50;;
289;SDS011;13193;48.874;9.086;2022-08-19T14:51:53;12.70;;;6.30;;
289;SDS011;13193;48.874;9.086;2022-08-19T14:54:24;7.30;;;6.30;;
289;SDS011;13193;48.874;9.086;2022-08-19T14:56:53;7.30;;;5.73;;
289;SDS011;13193;48.874;9.086;2022-08-19T14:59:18;6.67;;;5.90;;
289;SDS011;13193;48.874;9.086;2022-08-19T15:01:44;8.53;;;6.57;;
289;SDS011;13193;48.874;9.086;2022-08-19T15:04:10;9.37;;;6.00;;
289;SDS011;13193;48.874;9.086;2022-08-19T15:06:35;9.23;;;5.93;;
289;SDS011;13193;48.874;9.086;2022-08-19T15:09:02;10.30;;;5.90;;
289;SDS011;13193;48.874;9.086;2022-08-19T15:11:28;7.37;;;6.27;;